sensor_id;sensor_type;location;lat;lon;timestamp;P1;durP1;ratioP1;P2;durP2;ratioP2
14688;SDS011;7432;48.728;9.154;2024-02-21T00:01:41;12.63;;;9.80;;
14688;SDS011;7432;48.728;9.154;2024-02-21T00:04:07;14.00;;;10.60;;
14688;SDS011;7432;48.728;9.154;2024-02-21T00:06:33;10.63;;;9.53;;
14688;SDS011;7432;48.728;9.154;2024-02-21T00:09:00;17.47;;;10.50;;
14688;SDS011;7432;48.728;9.154;2024-02-21T00:11:27;14.67;;;9.87;;
14688;SDS011;7432;48.728;9.154;2024-02-21T00:13:54;12.33;;;9.93;;
14688;SDS011;7432;48.728;9.154;2024-02-21T00:16:21;12.13;;;10.37;;
14688;SDS011;7432;48.728;9.154;2024-02-21T00:18:47;14.27;;;11.10;;
14688;SDS011;7432;48.728;9.154;2024-02-21T00:21:14;13.73;;;10.00;;
14688;SDS011;7432;48.728;9.154;2024-02-21T00:23:43;11.67;;;9.60;;
14688;SDS011;7432;48.728;9.154;2024-02-21T00:26:10;11.67;;;9.80;;
14688;SDS011;7432;48.728;9.154;2024-02-21T00:28:38;12.93;;;9.57;;
14688;SDS011;7432;48.728;9.154;2024-02-21T00:31:04;13.97;;;9.40;;
14688;SDS011;7432;48.728;9.154;2024-02-21T00:33:31;12.43;;;9.30;;
14688;SDS011;7432;48.728;9.154;2024-02-21T00:35:57;10.37;;;8.50;;
14688;SDS011;7432;48.728;9.154;2024-02-21T00:38:23;11.03;;;9.20;;
14688;SDS011;7432;48.728;9.154;2024-02-21T00:40:50;12.23;;;9.67;;
14688;SDS011;7432;48.728;9.154;2024-02-21T00:43:16;10.63;;;9.40;;
14688;SDS011;7432;48.728;9.154;2024-02-21T00:45:44;12.13;;;9.17;;
14688;SDS011;7432;48.728;9.154;2024-02-21T00:48:10;12.03;;;9.30;;
14688;SDS011;7432;48.728;9.154;2024-02-21T00:50:36;10.53;;;9.53;;
14688;SDS011;7432;48.728;9.154;2024-02-21T00:53:03;11.77;;;9.60;;
14688;SDS011;7432;48.728;9.154;2024-02-21T00:55:29;10.53;;;9.43;;
14688;SDS011;7432;48.728;9.154;2024-02-21T00:57:56;14.03;;;9.17;;
14688;SDS011;7432;48.728;9.154;2024-02-21T01:00:22;11.27;;;8.23;;
14688;SDS011;7432;48.728;9.154;2024-02-21T01:02:50;9.77;;;8.70;;
14688;SDS011;7432;48.728;9.154;2024-02-21T01:05:16;12.63;;;9.23;;
14688;SDS011;7432;48.728;9.154;2024-02-21T01:07:43;9.83;;;8.87;;
14688;SDS011;7432;48.728;9.154;2024-02-21T01:10:09;13.97;;;9.57;;
14688;SDS011;7432;48.728;9.154;2024-02-21T01:12:35;11.03;;;8.83;;
14688;SDS011;7432;48.728;9.154;2024-02-21T01:15:02;14.93;;;9.93;;
14688;SDS011;7432;48.728;9.154;2024-02-21T01:17:29;14.90;;;9.47;;
14688;SDS011;7432;48.728;9.154;2024-02-21T01:19:57;14.20;;;9.50;;
14688;SDS011;7432;48.728;9.154;2024-02-21T01:22:23;10.43;;;8.37;;
14688;SDS011;7432;48.728;9.154;2024-02-21T01:24:49;13.37;;;9.13;;
14688;SDS011;7432;48.728;9.154;2024-02-21T01:27:16;11.97;;;8.47;;
14688;SDS011;7432;48.728;9.154;2024-02-21T01:29:42;10.33;;;8.80;;
14688;SDS011;7432;48.728;9.154;2024-02-21T01:32:09;9.57;;;8.63;;
14688;SDS011;7432;48.728;9.154;2024-02-21T01:34:35;10.57;;;8.40;;
14688;SDS011;7432;48.728;9.154;2024-02-21T01:37:03;14.13;;;8.57;;
14688;SDS011;7432;48.728;9.154;2024-02-21T01:39:32;12.37;;;8.90;;
14688;SDS011;7432;48.728;9.154;2024-02-21T01:41:58;9.90;;;8.90;;
14688;SDS011;7432;48.728;9.154;2024-02-21T01:44:24;10.57;;;8.63;;
14688;SDS011;7432;48.728;9.154;2024-02-21T01:46:51;11.30;;;8.63;;
14688;SDS011;7432;48.728;9.154;2024-02-21T01:49:18;9.43;;;8.43;;
14688;SDS011;7432;48.728;9.154;2024-02-21T01:51:45;9.50;;;8.70;;
14688;SDS011;7432;48.728;9.154;2024-02-21T01:54:14;9.77;;;8.63;;
14688;SDS011;7432;48.728;9.154;2024-02-21T01:56:42;10.70;;;8.90;;
14688;SDS011;7432;48.728;9.154;2024-02-21T01:59:08;9.47;;;8.47;;
14688;SDS011;7432;48.728;9.154;2024-02-21T02:01:35;12.17;;;8.30;;
14688;SDS011;7432;48.728;9.154;2024-02-21T02:04:02;11.20;;;8.33;;
14688;SDS011;7432;48.728;9.154;2024-02-21T02:06:30;9.03;;;8.10;;
14688;SDS011;7432;48.728;9.154;2024-02-21T02:08:56;9.20;;;8.10;;
14688;SDS011;7432;48.728;9.154;2024-02-21T02:11:24;10.27;;;8.73;;
14688;SDS011;7432;48.728;9.154;2024-02-21T02:13:50;9.83;;;8.83;;
14688;SDS011;7432;48.728;9.154;2024-02-21T02:16:17;10.20;;;8.57;;
14688;SDS011;7432;48.728;9.154;2024-02-21T02:18:43;9.17;;;8.13;;
14688;SDS011;7432;48.728;9.154;2024-02-21T02:21:10;10.00;;;8.37;;
14688;SDS011;7432;48.728;9.154;2024-02-21T02:23:48;10.83;;;8.50;;
14688;SDS011;7432;48.728;9.154;2024-02-21T02:26:15;11.17;;;8.23;;
14688;SDS011;7432;48.728;9.154;2024-02-21T02:28:41;11.50;;;8.40;;
14688;SDS011;7432;48.728;9.154;2024-02-21T02:31:07;9.57;;;8.40;;
14688;SDS011;7432;48.728;9.154;2024-02-21T02:33:34;9.43;;;8.50;;
14688;SDS011;7432;48.728;9.154;2024-02-21T02:36:00;9.30;;;8.07;;
14688;SDS011;7432;48.728;9.154;2024-02-21T02:38:26;10.03;;;8.93;;
14688;SDS011;7432;48.728;9.154;2024-02-21T02:40:54;11.87;;;8.73;;
14688;SDS011;7432;48.728;9.154;2024-02-21T02:43:20;11.37;;;9.07;;
14688;SDS011;7432;48.728;9.154;2024-02-21T02:45:47;10.37;;;8.80;;
14688;SDS011;7432;48.728;9.154;2024-02-21T02:48:13;9.57;;;8.77;;
14688;SDS011;7432;48.728;9.154;2024-02-21T02:50:39;9.70;;;8.80;;
14688;SDS011;7432;48.728;9.154;2024-02-21T02:53:06;9.93;;;8.93;;
14688;SDS011;7432;48.728;9.154;2024-02-21T02:55:32;9.63;;;8.63;;
14688;SDS011;7432;48.728;9.154;2024-02-21T02:58:01;9.43;;;8.53;;
14688;SDS011;7432;48.728;9.154;2024-02-21T03:00:28;9.40;;;8.47;;
14688;SDS011;7432;48.728;9.154;2024-02-21T03:02:54;9.50;;;8.60;;
14688;SDS011;7432;48.728;9.154;2024-02-21T03:05:21;11.03;;;8.53;;
14688;SDS011;7432;48.728;9.154;2024-02-21T03:07:48;9.93;;;8.90;;
14688;SDS011;7432;48.728;9.154;2024-02-21T03:10:14;9.90;;;8.87;;
14688;SDS011;7432;48.728;9.154;2024-02-21T03:12:42;10.60;;;8.50;;
14688;SDS011;7432;48.728;9.154;2024-02-21T03:15:10;9.53;;;8.60;;
14688;SDS011;7432;48.728;9.154;2024-02-21T03:17:37;10.33;;;8.63;;
14688;SDS011;7432;48.728;9.154;2024-02-21T03:20:03;12.57;;;8.60;;
14688;SDS011;7432;48.728;9.154;2024-02-21T03:22:33;10.53;;;8.97;;
14688;SDS011;7432;48.728;9.154;2024-02-21T03:24:59;10.47;;;8.20;;
14688;SDS011;7432;48.728;9.154;2024-02-21T03:27:26;9.90;;;8.90;;
14688;SDS011;7432;48.728;9.154;2024-02-21T03:29:52;13.27;;;9.10;;
14688;SDS011;7432;48.728;9.154;2024-02-21T03:32:20;10.13;;;8.70;;
14688;SDS011;7432;48.728;9.154;2024-02-21T03:34:46;11.23;;;7.87;;
14688;SDS011;7432;48.728;9.154;2024-02-21T03:37:13;10.47;;;8.73;;
14688;SDS011;7432;48.728;9.154;2024-02-21T03:39:39;12.23;;;9.20;;
14688;SDS011;7432;48.728;9.154;2024-02-21T03:42:05;9.57;;;8.70;;
14688;SDS011;7432;48.728;9.154;2024-02-21T03:44:32;10.37;;;8.70;;
14688;SDS011;7432;48.728;9.154;2024-02-21T03:46:59;11.03;;;9.00;;
14688;SDS011;7432;48.728;9.154;2024-02-21T03:49:27;11.47;;;8.90;;
14688;SDS011;7432;48.728;9.154;2024-02-21T03:51:53;12.70;;;8.77;;
14688;SDS011;7432;48.728;9.154;2024-02-21T03:54:20;10.90;;;9.80;;
14688;SDS011;7432;48.728;9.154;2024-02-21T03:56:46;14.47;;;9.20;;
14688;SDS011;7432;48.728;9.154;2024-02-21T03:59:13;13.63;;;9.10;;
14688;SDS011;7432;48.728;9.154;2024-02-21T04:01:40;11.00;;;8.43;;
14688;SDS011;7432;48.728;9.154;2024-02-21T04:04:06;9.93;;;9.00;;
14688;SDS011;7432;48.728;9.154;2024-02-21T04:06:34;9.80;;;8.20;;
14688;SDS011;7432;48.728;9.154;2024-02-21T04:09:01;11.97;;;8.63;;
14688;SDS011;7432;48.728;9.154;2024-02-21T04:11:28;9.30;;;8.50;;
14688;SDS011;7432;48.728;9.154;2024-02-21T04:13:54;9.30;;;8.40;;
14688;SDS011;7432;48.728;9.154;2024-02-21T04:16:21;9.90;;;8.30;;
14688;SDS011;7432;48.728;9.154;2024-02-21T04:18:47;8.93;;;7.90;;
14688;SDS011;7432;48.728;9.154;2024-02-21T04:21:14;8.93;;;8.10;;
14688;SDS011;7432;48.728;9.154;2024-02-21T04:23:42;10.93;;;8.43;;
14688;SDS011;7432;48.728;9.154;2024-02-21T04:26:09;11.77;;;8.43;;
14688;SDS011;7432;48.728;9.154;2024-02-21T04:28:35;9.67;;;8.67;;
14688;SDS011;7432;48.728;9.154;2024-02-21T04:31:01;12.13;;;8.40;;
14688;SDS011;7432;48.728;9.154;2024-02-21T04:33:28;9.43;;;8.53;;
14688;SDS011;7432;48.728;9.154;2024-02-21T04:35:54;11.37;;;8.03;;
14688;SDS011;7432;48.728;9.154;2024-02-21T04:38:20;9.47;;;8.57;;
14688;SDS011;7432;48.728;9.154;2024-02-21T04:40:48;9.03;;;8.13;;
14688;SDS011;7432;48.728;9.154;2024-02-21T04:43:15;10.00;;;8.83;;
14688;SDS011;7432;48.728;9.154;2024-02-21T04:45:41;9.17;;;8.33;;
14688;SDS011;7432;48.728;9.154;2024-02-21T04:48:07;9.90;;;8.93;;
14688;SDS011;7432;48.728;9.154;2024-02-21T04:50:34;8.77;;;8.07;;
14688;SDS011;7432;48.728;9.154;2024-02-21T04:53:00;9.87;;;8.87;;
14688;SDS011;7432;48.728;9.154;2024-02-21T04:55:26;8.90;;;8.10;;
14688;SDS011;7432;48.728;9.154;2024-02-21T04:57:54;9.30;;;8.40;;
14688;SDS011;7432;48.728;9.154;2024-02-21T05:00:20;9.70;;;8.67;;
14688;SDS011;7432;48.728;9.154;2024-02-21T05:02:47;9.00;;;8.20;;
14688;SDS011;7432;48.728;9.154;2024-02-21T05:05:13;10.10;;;9.10;;
14688;SDS011;7432;48.728;9.154;2024-02-21T05:07:41;9.50;;;8.27;;
14688;SDS011;7432;48.728;9.154;2024-02-21T05:10:08;9.33;;;7.70;;
14688;SDS011;7432;48.728;9.154;2024-02-21T05:12:35;8.83;;;8.13;;
14688;SDS011;7432;48.728;9.154;2024-02-21T05:15:02;10.30;;;9.07;;
14688;SDS011;7432;48.728;9.154;2024-02-21T05:17:29;10.17;;;8.73;;
14688;SDS011;7432;48.728;9.154;2024-02-21T05:19:56;11.53;;;8.90;;
14688;SDS011;7432;48.728;9.154;2024-02-21T05:22:22;8.97;;;8.17;;
14688;SDS011;7432;48.728;9.154;2024-02-21T05:24:48;9.67;;;8.87;;
14688;SDS011;7432;48.728;9.154;2024-02-21T05:27:15;9.33;;;8.40;;
14688;SDS011;7432;48.728;9.154;2024-02-21T05:29:41;9.03;;;8.13;;
14688;SDS011;7432;48.728;9.154;2024-02-21T05:32:09;8.80;;;8.00;;
14688;SDS011;7432;48.728;9.154;2024-02-21T05:34:35;9.13;;;8.17;;
14688;SDS011;7432;48.728;9.154;2024-02-21T05:37:02;9.07;;;7.53;;
14688;SDS011;7432;48.728;9.154;2024-02-21T05:39:28;8.80;;;8.00;;
14688;SDS011;7432;48.728;9.154;2024-02-21T05:41:54;9.07;;;8.17;;
14688;SDS011;7432;48.728;9.154;2024-02-21T05:44:21;8.90;;;7.87;;
14688;SDS011;7432;48.728;9.154;2024-02-21T05:46:47;9.23;;;8.40;;
14688;SDS011;7432;48.728;9.154;2024-02-21T05:49:15;9.83;;;8.63;;
14688;SDS011;7432;48.728;9.154;2024-02-21T05:51:41;9.40;;;8.50;;
14688;SDS011;7432;48.728;9.154;2024-02-21T05:54:08;9.30;;;8.30;;
14688;SDS011;7432;48.728;9.154;2024-02-21T05:56:34;12.10;;;8.50;;
14688;SDS011;7432;48.728;9.154;2024-02-21T05:59:00;10.60;;;8.67;;
14688;SDS011;7432;48.728;9.154;2024-02-21T06:01:27;9.43;;;8.50;;
14688;SDS011;7432;48.728;9.154;2024-02-21T06:03:53;10.87;;;8.53;;
14688;SDS011;7432;48.728;9.154;2024-02-21T06:06:21;10.00;;;9.10;;
14688;SDS011;7432;48.728;9.154;2024-02-21T06:08:48;9.23;;;8.40;;
14688;SDS011;7432;48.728;9.154;2024-02-21T06:11:14;9.60;;;8.70;;
14688;SDS011;7432;48.728;9.154;2024-02-21T06:13:41;12.37;;;9.60;;
14688;SDS011;7432;48.728;9.154;2024-02-21T06:16:07;11.00;;;9.33;;
14688;SDS011;7432;48.728;9.154;2024-02-21T06:18:35;10.13;;;9.10;;
14688;SDS011;7432;48.728;9.154;2024-02-21T06:21:02;11.30;;;10.03;;
14688;SDS011;7432;48.728;9.154;2024-02-21T06:23:30;10.10;;;8.67;;
14688;SDS011;7432;48.728;9.154;2024-02-21T06:25:56;10.50;;;9.40;;
14688;SDS011;7432;48.728;9.154;2024-02-21T06:28:23;11.03;;;9.23;;
14688;SDS011;7432;48.728;9.154;2024-02-21T06:30:49;9.67;;;8.67;;
14688;SDS011;7432;48.728;9.154;2024-02-21T06:33:15;8.73;;;7.90;;
14688;SDS011;7432;48.728;9.154;2024-02-21T06:35:42;9.03;;;8.10;;
14688;SDS011;7432;48.728;9.154;2024-02-21T06:38:11;9.87;;;8.87;;
14688;SDS011;7432;48.728;9.154;2024-02-21T06:40:38;10.43;;;8.70;;
14688;SDS011;7432;48.728;9.154;2024-02-21T06:43:05;11.23;;;9.40;;
14688;SDS011;7432;48.728;9.154;2024-02-21T06:45:32;12.93;;;8.83;;
14688;SDS011;7432;48.728;9.154;2024-02-21T06:47:58;10.47;;;9.37;;
14688;SDS011;7432;48.728;9.154;2024-02-21T06:50:24;11.07;;;8.83;;
14688;SDS011;7432;48.728;9.154;2024-02-21T06:52:51;9.87;;;9.03;;
14688;SDS011;7432;48.728;9.154;2024-02-21T06:55:17;9.87;;;8.37;;
14688;SDS011;7432;48.728;9.154;2024-02-21T06:57:45;10.67;;;8.63;;
14688;SDS011;7432;48.728;9.154;2024-02-21T07:00:13;9.23;;;8.43;;
14688;SDS011;7432;48.728;9.154;2024-02-21T07:02:41;9.40;;;8.50;;
14688;SDS011;7432;48.728;9.154;2024-02-21T07:05:07;9.80;;;8.80;;
14688;SDS011;7432;48.728;9.154;2024-02-21T07:07:34;9.27;;;8.37;;
14688;SDS011;7432;48.728;9.154;2024-02-21T07:10:01;9.50;;;8.60;;
14688;SDS011;7432;48.728;9.154;2024-02-21T07:12:27;9.33;;;8.53;;
14688;SDS011;7432;48.728;9.154;2024-02-21T07:14:55;10.80;;;8.67;;
14688;SDS011;7432;48.728;9.154;2024-02-21T07:17:21;9.80;;;8.80;;
14688;SDS011;7432;48.728;9.154;2024-02-21T07:19:47;11.57;;;9.37;;
14688;SDS011;7432;48.728;9.154;2024-02-21T07:22:13;10.00;;;9.00;;
14688;SDS011;7432;48.728;9.154;2024-02-21T07:24:40;9.87;;;8.80;;
14688;SDS011;7432;48.728;9.154;2024-02-21T07:27:06;9.40;;;8.50;;
14688;SDS011;7432;48.728;9.154;2024-02-21T07:29:32;9.00;;;8.27;;
14688;SDS011;7432;48.728;9.154;2024-02-21T07:32:00;10.00;;;9.03;;
14688;SDS011;7432;48.728;9.154;2024-02-21T07:34:27;9.37;;;8.40;;
14688;SDS011;7432;48.728;9.154;2024-02-21T07:36:53;11.70;;;9.47;;
14688;SDS011;7432;48.728;9.154;2024-02-21T07:39:19;9.13;;;8.27;;
14688;SDS011;7432;48.728;9.154;2024-02-21T07:41:46;9.97;;;8.90;;
14688;SDS011;7432;48.728;9.154;2024-02-21T07:44:14;10.00;;;9.00;;
14688;SDS011;7432;48.728;9.154;2024-02-21T07:46:40;10.63;;;9.63;;
14688;SDS011;7432;48.728;9.154;2024-02-21T07:49:08;10.27;;;9.37;;
14688;SDS011;7432;48.728;9.154;2024-02-21T07:51:34;10.30;;;9.40;;
14688;SDS011;7432;48.728;9.154;2024-02-21T07:54:01;10.47;;;9.57;;
14688;SDS011;7432;48.728;9.154;2024-02-21T07:56:29;10.40;;;9.47;;
14688;SDS011;7432;48.728;9.154;2024-02-21T07:58:56;10.90;;;9.80;;
14688;SDS011;7432;48.728;9.154;2024-02-21T08:01:22;10.00;;;9.20;;
14688;SDS011;7432;48.728;9.154;2024-02-21T08:03:48;9.93;;;9.13;;
14688;SDS011;7432;48.728;9.154;2024-02-21T08:06:16;10.30;;;9.60;;
14688;SDS011;7432;48.728;9.154;2024-02-21T08:08:42;11.47;;;9.97;;
14688;SDS011;7432;48.728;9.154;2024-02-21T08:11:09;10.73;;;9.70;;
14688;SDS011;7432;48.728;9.154;2024-02-21T08:13:35;10.63;;;9.70;;
14688;SDS011;7432;48.728;9.154;2024-02-21T08:16:01;10.87;;;9.87;;
14688;SDS011;7432;48.728;9.154;2024-02-21T08:18:28;10.60;;;9.47;;
14688;SDS011;7432;48.728;9.154;2024-02-21T08:20:54;10.60;;;9.60;;
14688;SDS011;7432;48.728;9.154;2024-02-21T08:23:22;10.77;;;9.70;;
14688;SDS011;7432;48.728;9.154;2024-02-21T08:25:49;9.80;;;9.10;;
14688;SDS011;7432;48.728;9.154;2024-02-21T08:28:16;10.47;;;9.47;;
14688;SDS011;7432;48.728;9.154;2024-02-21T08:30:42;15.23;;;9.53;;
14688;SDS011;7432;48.728;9.154;2024-02-21T08:33:12;10.57;;;9.67;;
14688;SDS011;7432;48.728;9.154;2024-02-21T08:35:39;10.77;;;9.63;;
14688;SDS011;7432;48.728;9.154;2024-02-21T08:38:05;9.97;;;9.10;;
14688;SDS011;7432;48.728;9.154;2024-02-21T08:40:33;10.63;;;9.60;;
14688;SDS011;7432;48.728;9.154;2024-02-21T08:43:00;10.40;;;9.40;;
14688;SDS011;7432;48.728;9.154;2024-02-21T08:45:26;10.10;;;9.20;;
14688;SDS011;7432;48.728;9.154;2024-02-21T08:47:53;11.63;;;9.67;;
14688;SDS011;7432;48.728;9.154;2024-02-21T08:50:19;10.67;;;9.67;;
14688;SDS011;7432;48.728;9.154;2024-02-21T08:52:45;10.47;;;9.47;;
14688;SDS011;7432;48.728;9.154;2024-02-21T08:55:12;10.50;;;9.60;;
14688;SDS011;7432;48.728;9.154;2024-02-21T08:57:39;10.77;;;9.80;;
14688;SDS011;7432;48.728;9.154;2024-02-21T09:00:06;10.17;;;9.27;;
14688;SDS011;7432;48.728;9.154;2024-02-21T09:02:35;10.80;;;9.93;;
14688;SDS011;7432;48.728;9.154;2024-02-21T09:05:03;9.83;;;9.20;;
14688;SDS011;7432;48.728;9.154;2024-02-21T09:07:30;10.83;;;9.83;;
14688;SDS011;7432;48.728;9.154;2024-02-21T09:09:57;14.30;;;10.20;;
14688;SDS011;7432;48.728;9.154;2024-02-21T09:12:23;15.77;;;10.30;;
14688;SDS011;7432;48.728;9.154;2024-02-21T09:14:51;10.20;;;9.30;;
14688;SDS011;7432;48.728;9.154;2024-02-21T09:17:18;10.67;;;9.57;;
14688;SDS011;7432;48.728;9.154;2024-02-21T09:19:45;10.40;;;9.40;;
14688;SDS011;7432;48.728;9.154;2024-02-21T09:22:12;10.13;;;9.23;;
14688;SDS011;7432;48.728;9.154;2024-02-21T09:24:38;11.37;;;9.97;;
14688;SDS011;7432;48.728;9.154;2024-02-21T09:27:04;10.03;;;9.23;;
14688;SDS011;7432;48.728;9.154;2024-02-21T09:29:31;10.87;;;9.77;;
14688;SDS011;7432;48.728;9.154;2024-02-21T09:32:00;10.00;;;9.00;;
14688;SDS011;7432;48.728;9.154;2024-02-21T09:34:27;10.20;;;9.40;;
14688;SDS011;7432;48.728;9.154;2024-02-21T09:36:54;10.10;;;9.20;;
14688;SDS011;7432;48.728;9.154;2024-02-21T09:39:20;10.60;;;9.60;;
14688;SDS011;7432;48.728;9.154;2024-02-21T09:41:47;10.50;;;9.40;;
14688;SDS011;7432;48.728;9.154;2024-02-21T09:44:18;10.00;;;9.00;;
14688;SDS011;7432;48.728;9.154;2024-02-21T09:46:48;9.97;;;9.10;;
14688;SDS011;7432;48.728;9.154;2024-02-21T09:49:25;9.40;;;8.70;;
14688;SDS011;7432;48.728;9.154;2024-02-21T09:51:57;10.33;;;9.43;;
14688;SDS011;7432;48.728;9.154;2024-02-21T09:54:26;10.37;;;9.47;;
14688;SDS011;7432;48.728;9.154;2024-02-21T09:56:54;10.07;;;9.10;;
14688;SDS011;7432;48.728;9.154;2024-02-21T09:59:20;10.30;;;9.40;;
14688;SDS011;7432;48.728;9.154;2024-02-21T10:01:47;10.03;;;9.10;;
14688;SDS011;7432;48.728;9.154;2024-02-21T10:04:14;10.27;;;9.37;;
14688;SDS011;7432;48.728;9.154;2024-02-21T10:06:42;10.10;;;9.30;;
14688;SDS011;7432;48.728;9.154;2024-02-21T10:09:09;10.60;;;9.70;;
14688;SDS011;7432;48.728;9.154;2024-02-21T10:11:47;10.23;;;9.33;;
14688;SDS011;7432;48.728;9.154;2024-02-21T10:14:13;10.40;;;9.33;;
14688;SDS011;7432;48.728;9.154;2024-02-21T10:16:40;11.47;;;9.57;;
14688;SDS011;7432;48.728;9.154;2024-02-21T10:19:15;10.10;;;9.40;;
14688;SDS011;7432;48.728;9.154;2024-02-21T10:21:43;10.23;;;9.17;;
14688;SDS011;7432;48.728;9.154;2024-02-21T10:24:10;9.70;;;8.80;;
14688;SDS011;7432;48.728;9.154;2024-02-21T10:26:38;9.47;;;8.77;;
14688;SDS011;7432;48.728;9.154;2024-02-21T10:29:04;10.20;;;9.20;;
14688;SDS011;7432;48.728;9.154;2024-02-21T10:31:30;9.60;;;8.90;;
14688;SDS011;7432;48.728;9.154;2024-02-21T10:33:58;9.93;;;9.13;;
14688;SDS011;7432;48.728;9.154;2024-02-21T10:36:27;9.93;;;9.13;;
14688;SDS011;7432;48.728;9.154;2024-02-21T10:38:56;9.60;;;8.80;;
14688;SDS011;7432;48.728;9.154;2024-02-21T10:41:22;10.37;;;9.40;;
14688;SDS011;7432;48.728;9.154;2024-02-21T10:43:52;9.67;;;8.77;;
14688;SDS011;7432;48.728;9.154;2024-02-21T10:46:20;10.10;;;9.10;;
14688;SDS011;7432;48.728;9.154;2024-02-21T10:48:48;9.67;;;8.97;;
14688;SDS011;7432;48.728;9.154;2024-02-21T10:51:19;9.97;;;8.87;;
14688;SDS011;7432;48.728;9.154;2024-02-21T10:53:50;10.37;;;9.37;;
14688;SDS011;7432;48.728;9.154;2024-02-21T10:56:28;9.43;;;8.70;;
14688;SDS011;7432;48.728;9.154;2024-02-21T10:58:56;9.60;;;8.90;;
14688;SDS011;7432;48.728;9.154;2024-02-21T11:01:23;9.60;;;8.77;;
14688;SDS011;7432;48.728;9.154;2024-02-21T11:03:52;9.40;;;8.80;;
14688;SDS011;7432;48.728;9.154;2024-02-21T11:06:20;9.30;;;8.60;;
14688;SDS011;7432;48.728;9.154;2024-02-21T11:08:58;9.33;;;8.57;;
14688;SDS011;7432;48.728;9.154;2024-02-21T11:11:25;9.40;;;8.57;;
14688;SDS011;7432;48.728;9.154;2024-02-21T11:14:03;10.53;;;8.97;;
14688;SDS011;7432;48.728;9.154;2024-02-21T11:16:34;8.93;;;8.13;;
14688;SDS011;7432;48.728;9.154;2024-02-21T11:19:04;9.50;;;8.70;;
14688;SDS011;7432;48.728;9.154;2024-02-21T11:21:32;9.57;;;8.77;;
14688;SDS011;7432;48.728;9.154;2024-02-21T11:23:59;8.93;;;8.33;;
14688;SDS011;7432;48.728;9.154;2024-02-21T11:26:27;10.00;;;9.10;;
14688;SDS011;7432;48.728;9.154;2024-02-21T11:28:59;8.83;;;8.27;;
14688;SDS011;7432;48.728;9.154;2024-02-21T11:31:26;9.47;;;8.77;;
14688;SDS011;7432;48.728;9.154;2024-02-21T11:33:53;9.43;;;8.63;;
14688;SDS011;7432;48.728;9.154;2024-02-21T11:36:23;10.00;;;9.00;;
14688;SDS011;7432;48.728;9.154;2024-02-21T11:38:50;9.77;;;8.80;;
14688;SDS011;7432;48.728;9.154;2024-02-21T11:41:17;9.07;;;8.47;;
14688;SDS011;7432;48.728;9.154;2024-02-21T11:43:43;9.17;;;8.47;;
14688;SDS011;7432;48.728;9.154;2024-02-21T11:46:11;9.10;;;8.50;;
14688;SDS011;7432;48.728;9.154;2024-02-21T11:48:37;9.70;;;9.00;;
14688;SDS011;7432;48.728;9.154;2024-02-21T11:51:04;9.13;;;8.33;;
14688;SDS011;7432;48.728;9.154;2024-02-21T11:53:30;9.33;;;8.53;;
14688;SDS011;7432;48.728;9.154;2024-02-21T11:55:58;9.43;;;8.73;;
14688;SDS011;7432;48.728;9.154;2024-02-21T11:58:24;8.80;;;8.20;;
14688;SDS011;7432;48.728;9.154;2024-02-21T12:00:51;9.03;;;8.40;;
14688;SDS011;7432;48.728;9.154;2024-02-21T12:03:19;9.37;;;8.67;;
14688;SDS011;7432;48.728;9.154;2024-02-21T12:05:45;9.07;;;8.47;;
14688;SDS011;7432;48.728;9.154;2024-02-21T12:08:12;9.50;;;8.87;;
14688;SDS011;7432;48.728;9.154;2024-02-21T12:10:39;9.80;;;9.10;;
14688;SDS011;7432;48.728;9.154;2024-02-21T12:13:05;9.40;;;8.70;;
14688;SDS011;7432;48.728;9.154;2024-02-21T12:15:33;9.20;;;8.50;;
14688;SDS011;7432;48.728;9.154;2024-02-21T12:17:59;8.97;;;8.30;;
14688;SDS011;7432;48.728;9.154;2024-02-21T12:20:27;9.33;;;8.53;;
14688;SDS011;7432;48.728;9.154;2024-02-21T12:22:53;8.90;;;8.30;;
14688;SDS011;7432;48.728;9.154;2024-02-21T12:25:20;9.33;;;8.60;;
14688;SDS011;7432;48.728;9.154;2024-02-21T12:27:48;9.40;;;8.73;;
14688;SDS011;7432;48.728;9.154;2024-02-21T12:30:15;8.70;;;8.10;;
14688;SDS011;7432;48.728;9.154;2024-02-21T12:32:41;9.20;;;8.50;;
14688;SDS011;7432;48.728;9.154;2024-02-21T12:35:08;9.17;;;8.33;;
14688;SDS011;7432;48.728;9.154;2024-02-21T12:37:36;8.73;;;8.23;;
14688;SDS011;7432;48.728;9.154;2024-02-21T12:40:03;9.13;;;8.53;;
14688;SDS011;7432;48.728;9.154;2024-02-21T12:42:31;9.20;;;8.40;;
14688;SDS011;7432;48.728;9.154;2024-02-21T12:44:58;8.90;;;8.30;;
14688;SDS011;7432;48.728;9.154;2024-02-21T12:47:24;8.90;;;8.30;;
14688;SDS011;7432;48.728;9.154;2024-02-21T12:49:51;8.80;;;8.17;;
14688;SDS011;7432;48.728;9.154;2024-02-21T12:52:18;8.80;;;8.20;;
14688;SDS011;7432;48.728;9.154;2024-02-21T12:54:46;9.13;;;8.53;;
14688;SDS011;7432;48.728;9.154;2024-02-21T12:57:13;9.43;;;8.63;;
14688;SDS011;7432;48.728;9.154;2024-02-21T12:59:40;8.67;;;8.17;;
14688;SDS011;7432;48.728;9.154;2024-02-21T13:02:06;9.77;;;9.00;;
14688;SDS011;7432;48.728;9.154;2024-02-21T13:04:34;9.20;;;8.50;;
14688;SDS011;7432;48.728;9.154;2024-02-21T13:07:00;8.80;;;8.30;;
14688;SDS011;7432;48.728;9.154;2024-02-21T13:09:26;9.00;;;8.30;;
14688;SDS011;7432;48.728;9.154;2024-02-21T13:11:54;9.43;;;8.67;;
14688;SDS011;7432;48.728;9.154;2024-02-21T13:14:20;9.60;;;8.80;;
14688;SDS011;7432;48.728;9.154;2024-02-21T13:16:48;9.60;;;8.90;;
14688;SDS011;7432;48.728;9.154;2024-02-21T13:19:15;9.83;;;8.93;;
14688;SDS011;7432;48.728;9.154;2024-02-21T13:21:42;9.07;;;8.57;;
14688;SDS011;7432;48.728;9.154;2024-02-21T13:24:08;9.40;;;8.80;;
14688;SDS011;7432;48.728;9.154;2024-02-21T13:26:35;8.70;;;8.20;;
14688;SDS011;7432;48.728;9.154;2024-02-21T13:29:02;9.00;;;8.30;;
14688;SDS011;7432;48.728;9.154;2024-02-21T13:31:29;9.50;;;8.77;;
14688;SDS011;7432;48.728;9.154;2024-02-21T13:33:55;9.10;;;8.50;;
14688;SDS011;7432;48.728;9.154;2024-02-21T13:36:22;9.47;;;8.77;;
14688;SDS011;7432;48.728;9.154;2024-02-21T13:38:48;9.73;;;9.13;;
14688;SDS011;7432;48.728;9.154;2024-02-21T13:41:16;8.93;;;8.43;;
14688;SDS011;7432;48.728;9.154;2024-02-21T13:43:42;8.97;;;8.40;;
14688;SDS011;7432;48.728;9.154;2024-02-21T13:46:13;8.90;;;8.40;;
14688;SDS011;7432;48.728;9.154;2024-02-21T13:48:40;9.50;;;8.90;;
14688;SDS011;7432;48.728;9.154;2024-02-21T13:51:06;9.80;;;9.03;;
14688;SDS011;7432;48.728;9.154;2024-02-21T13:53:33;8.93;;;8.33;;
14688;SDS011;7432;48.728;9.154;2024-02-21T13:55:59;9.27;;;8.67;;
14688;SDS011;7432;48.728;9.154;2024-02-21T13:58:26;9.13;;;8.43;;
14688;SDS011;7432;48.728;9.154;2024-02-21T14:00:53;9.20;;;8.57;;
14688;SDS011;7432;48.728;9.154;2024-02-21T14:03:20;9.63;;;8.93;;
14688;SDS011;7432;48.728;9.154;2024-02-21T14:05:47;9.17;;;8.67;;
14688;SDS011;7432;48.728;9.154;2024-02-21T14:08:14;9.17;;;8.57;;
14688;SDS011;7432;48.728;9.154;2024-02-21T14:10:40;9.07;;;8.57;;
14688;SDS011;7432;48.728;9.154;2024-02-21T14:13:07;9.07;;;8.57;;
14688;SDS011;7432;48.728;9.154;2024-02-21T14:15:33;8.50;;;7.93;;
14688;SDS011;7432;48.728;9.154;2024-02-21T14:17:59;9.30;;;8.70;;
14688;SDS011;7432;48.728;9.154;2024-02-21T14:20:27;8.70;;;8.20;;
14688;SDS011;7432;48.728;9.154;2024-02-21T14:22:54;9.43;;;8.73;;
14688;SDS011;7432;48.728;9.154;2024-02-21T14:25:20;9.30;;;8.70;;
14688;SDS011;7432;48.728;9.154;2024-02-21T14:27:47;9.17;;;8.60;;
14688;SDS011;7432;48.728;9.154;2024-02-21T14:30:13;9.43;;;8.83;;
14688;SDS011;7432;48.728;9.154;2024-02-21T14:32:40;9.37;;;8.77;;
14688;SDS011;7432;48.728;9.154;2024-02-21T14:35:09;9.40;;;8.70;;
14688;SDS011;7432;48.728;9.154;2024-02-21T14:37:37;9.13;;;8.60;;
14688;SDS011;7432;48.728;9.154;2024-02-21T14:40:04;9.63;;;8.93;;
14688;SDS011;7432;48.728;9.154;2024-02-21T14:42:31;9.50;;;8.90;;
14688;SDS011;7432;48.728;9.154;2024-02-21T14:44:57;9.70;;;9.20;;
14688;SDS011;7432;48.728;9.154;2024-02-21T14:47:29;9.77;;;9.10;;
14688;SDS011;7432;48.728;9.154;2024-02-21T14:49:56;9.93;;;9.23;;
14688;SDS011;7432;48.728;9.154;2024-02-21T14:52:22;9.73;;;9.03;;
14688;SDS011;7432;48.728;9.154;2024-02-21T14:54:51;10.03;;;9.23;;